createdAt,value
2018-12-18T00:02:22.036Z,100.00
2018-12-18T00:07:25.259Z,100.00
2018-12-18T00:12:28.533Z,100.00
2018-12-18T00:17:31.720Z,100.00
2018-12-18T00:22:34.924Z,100.00
2018-12-18T00:27:38.111Z,100.00
2018-12-18T00:32:41.281Z,100.00
2018-12-18T00:37:44.426Z,100.00
2018-12-18T00:42:47.618Z,100.00
2018-12-18T00:47:50.819Z,100.00
2018-12-18T00:52:54.079Z,100.00
2018-12-18T00:58:05.390Z,100.00
2018-12-18T01:03:10.186Z,99.94
2018-12-18T01:08:13.446Z,99.55
2018-12-18T01:13:16.750Z,99.48
2018-12-18T01:18:20.192Z,99.89
2018-12-18T01:23:23.343Z,99.89
2018-12-18T01:28:26.692Z,99.37
2018-12-18T01:33:29.913Z,99.85
2018-12-18T01:38:33.247Z,99.52
2018-12-18T01:43:36.548Z,99.90
2018-12-18T01:48:39.958Z,100.00
2018-12-18T01:53:43.241Z,100.00
2018-12-18T01:58:46.511Z,100.00
2018-12-18T02:03:49.712Z,100.00
2018-12-18T02:08:53.215Z,100.00
2018-12-18T02:13:56.530Z,100.00
2018-12-18T02:18:59.857Z,100.00
2018-12-18T02:24:03.386Z,100.00
2018-12-18T02:29:06.687Z,100.00
2018-12-18T02:34:13.693Z,100.00
2018-12-18T02:39:15.345Z,100.00
2018-12-18T02:44:18.681Z,100.00
2018-12-18T02:49:22.262Z,100.00
2018-12-18T02:54:25.508Z,100.00
2018-12-18T02:59:30.160Z,100.00
2018-12-18T03:04:34.384Z,100.00
2018-12-18T03:09:37.840Z,100.00
2018-12-18T03:14:40.953Z,100.00
2018-12-18T03:19:44.141Z,100.00
2018-12-18T03:24:47.360Z,100.00
2018-12-18T03:29:50.555Z,100.00
2018-12-18T03:34:54.046Z,100.00
2018-12-18T03:39:57.254Z,100.00
2018-12-18T03:45:00.588Z,100.00
2018-12-18T03:50:04.260Z,100.00
2018-12-18T03:55:07.625Z,100.00
2018-12-18T04:00:17.556Z,100.00
2018-12-18T04:05:20.706Z,100.00
2018-12-18T04:10:23.903Z,100.00
2018-12-18T04:15:27.364Z,100.00
2018-12-18T04:20:30.613Z,100.00
2018-12-18T04:25:33.880Z,100.00
2018-12-18T04:30:37.017Z,100.00
2018-12-18T04:35:40.440Z,100.00
2018-12-18T04:40:43.956Z,100.00
2018-12-18T04:45:47.279Z,100.00
2018-12-18T04:50:50.594Z,100.00
2018-12-18T04:55:54.579Z,100.00
2018-12-18T05:00:57.907Z,100.00
2018-12-18T05:06:01.302Z,100.00
2018-12-18T05:11:04.965Z,100.00
2018-12-18T05:16:08.208Z,100.00
2018-12-18T05:21:11.505Z,100.00
2018-12-18T05:26:14.682Z,100.00
2018-12-18T05:31:17.872Z,100.00
2018-12-18T05:36:21.201Z,100.00
2018-12-18T05:41:24.482Z,100.00
2018-12-18T05:46:27.593Z,100.00
2018-12-18T05:51:30.836Z,100.00
2018-12-18T05:56:34.271Z,100.00
2018-12-18T06:01:37.450Z,100.00
2018-12-18T06:06:40.916Z,100.00
2018-12-18T06:11:44.230Z,100.00
2018-12-18T06:16:47.770Z,100.00
2018-12-18T06:21:51.398Z,100.00
2018-12-18T06:26:54.818Z,100.00
2018-12-18T06:31:58.010Z,100.00
2018-12-18T06:37:01.240Z,100.00
2018-12-18T06:42:04.580Z,100.00
2018-12-18T06:47:09.349Z,100.00
2018-12-18T06:52:12.462Z,100.00
2018-12-18T06:57:15.688Z,100.00
2018-12-18T07:02:18.812Z,100.00
2018-12-18T07:07:22.134Z,100.00
2018-12-18T07:12:25.327Z,100.00
2018-12-18T07:17:28.504Z,100.00
2018-12-18T07:22:31.650Z,100.00
2018-12-18T07:27:35.297Z,100.00
2018-12-18T07:32:38.447Z,100.00
2018-12-18T07:37:41.630Z,100.00
2018-12-18T07:42:44.755Z,100.00
2018-12-18T07:47:47.923Z,100.00
2018-12-18T07:52:51.518Z,100.00
2018-12-18T07:57:55.589Z,100.00
2018-12-18T08:02:59.409Z,100.00
2018-12-18T08:08:02.630Z,100.00
2018-12-18T08:13:06.502Z,100.00
2018-12-18T08:18:10.033Z,100.00
2018-12-18T08:23:13.217Z,100.00
2018-12-18T08:28:16.549Z,100.00
2018-12-18T08:33:20.076Z,100.00
2018-12-18T08:38:23.319Z,100.00
2018-12-18T08:43:26.475Z,100.00
2018-12-18T08:48:29.616Z,100.00
2018-12-18T08:53:32.920Z,100.00
2018-12-18T08:58:36.120Z,99.55
2018-12-18T09:03:39.331Z,98.60
2018-12-18T09:08:42.561Z,98.28
2018-12-18T09:13:45.762Z,98.22
2018-12-18T09:18:55.097Z,98.13
2018-12-18T09:23:58.332Z,98.58
2018-12-18T09:29:01.630Z,99.12
2018-12-18T09:34:04.839Z,99.20
2018-12-18T09:39:08.052Z,98.65
2018-12-18T09:44:11.260Z,99.53
2018-12-18T09:49:14.570Z,99.40
2018-12-18T09:54:17.811Z,99.35
2018-12-18T09:59:21.036Z,98.95
2018-12-18T10:04:24.244Z,97.95
2018-12-18T10:09:27.464Z,97.14
2018-12-18T10:14:31.362Z,97.00
2018-12-18T10:19:34.767Z,96.07
2018-12-18T10:24:37.997Z,96.12
2018-12-18T10:29:41.297Z,96.60
2018-12-18T10:34:44.682Z,95.87
2018-12-18T10:39:48.107Z,95.04
2018-12-18T10:44:51.712Z,94.93
2018-12-18T10:49:55.014Z,95.04
2018-12-18T10:54:58.262Z,94.59
2018-12-18T11:00:01.457Z,94.11
2018-12-18T11:05:04.831Z,92.74
2018-12-18T11:10:08.226Z,91.77
2018-12-18T11:15:11.520Z,91.60
2018-12-18T11:20:14.721Z,85.94
2018-12-18T11:25:18.326Z,76.98
2018-12-18T11:30:21.577Z,74.97
2018-12-18T11:35:25.424Z,70.31
2018-12-18T11:40:28.691Z,67.68
2018-12-18T11:45:31.815Z,71.13
2018-12-18T11:50:35.010Z,70.43
2018-12-18T11:55:38.548Z,74.58
2018-12-18T12:00:41.955Z,75.55
2018-12-18T12:05:46.645Z,78.60
2018-12-18T12:10:50.294Z,77.82
2018-12-18T12:15:53.473Z,78.10
2018-12-18T12:20:56.718Z,76.65
2018-12-18T12:25:59.923Z,77.61
2018-12-18T12:31:03.371Z,82.19
2018-12-18T12:36:08.691Z,84.07
2018-12-18T12:41:12.822Z,84.90
2018-12-18T12:46:15.971Z,86.08
2018-12-18T12:51:19.200Z,87.98
2018-12-18T12:56:22.408Z,85.69
2018-12-18T13:01:25.622Z,87.16
2018-12-18T13:06:29.069Z,88.09
2018-12-18T13:11:32.761Z,89.84
2018-12-18T13:16:35.957Z,90.70
2018-12-18T13:21:39.164Z,89.12
2018-12-18T13:26:42.474Z,87.48
2018-12-18T13:31:45.625Z,85.84
2018-12-18T13:36:48.887Z,84.16
2018-12-18T13:41:52.176Z,86.15
2018-12-18T13:46:55.284Z,86.63
2018-12-18T13:51:58.507Z,88.51
2018-12-18T13:57:01.723Z,86.16
2018-12-18T14:02:04.949Z,86.58
2018-12-18T14:07:08.085Z,85.78
2018-12-18T14:12:11.404Z,87.35
2018-12-18T14:17:15.388Z,89.43
2018-12-18T14:22:19.152Z,91.36
2018-12-18T14:27:23.098Z,92.94
2018-12-18T14:32:26.345Z,94.51
2018-12-18T14:37:29.579Z,95.54
2018-12-18T14:42:35.015Z,97.22
2018-12-18T14:47:40.368Z,98.07
2018-12-18T14:52:43.624Z,100.00
2018-12-18T14:57:47.298Z,100.00
2018-12-18T15:02:51.237Z,100.00
2018-12-18T15:07:55.241Z,100.00
2018-12-18T15:12:58.476Z,100.00
2018-12-18T15:18:03.466Z,100.00
2018-12-18T15:23:06.702Z,100.00
2018-12-18T15:28:10.508Z,100.00
2018-12-18T15:33:13.813Z,100.00
2018-12-18T15:38:16.957Z,100.00
2018-12-18T15:43:21.247Z,100.00
2018-12-18T15:48:24.663Z,100.00
2018-12-18T15:53:27.973Z,100.00
2018-12-18T15:58:40.378Z,100.00
2018-12-18T16:03:47.897Z,100.00
2018-12-18T16:08:52.846Z,100.00
2018-12-18T16:13:57.431Z,100.00
2018-12-18T16:19:01.049Z,100.00
2018-12-18T16:24:04.477Z,100.00
2018-12-18T16:29:07.736Z,100.00
2018-12-18T16:34:10.931Z,100.00
2018-12-18T16:39:14.171Z,100.00
2018-12-18T16:44:17.365Z,100.00
2018-12-18T16:49:21.324Z,100.00
2018-12-18T16:54:24.720Z,100.00
2018-12-18T16:59:28.328Z,100.00
2018-12-18T17:04:31.531Z,100.00
2018-12-18T17:09:34.931Z,100.00
2018-12-18T17:14:38.344Z,100.00
2018-12-18T17:19:41.597Z,100.00
2018-12-18T17:24:44.847Z,100.00
2018-12-18T17:29:48.171Z,100.00
2018-12-18T17:34:51.407Z,100.00
2018-12-18T17:39:54.635Z,100.00
2018-12-18T17:44:57.877Z,100.00
2018-12-18T17:50:01.246Z,100.00
2018-12-18T17:55:04.772Z,100.00
2018-12-18T18:00:09.171Z,100.00
2018-12-18T18:05:13.626Z,100.00
2018-12-18T18:10:18.111Z,100.00
2018-12-18T18:15:21.614Z,100.00
2018-12-18T18:20:25.097Z,100.00
2018-12-18T18:25:30.848Z,100.00
2018-12-18T18:30:34.089Z,100.00
2018-12-18T18:35:37.479Z,100.00
2018-12-18T18:40:40.736Z,100.00
2018-12-18T18:45:44.083Z,100.00
2018-12-18T18:50:51.406Z,100.00
2018-12-18T18:55:54.751Z,100.00
2018-12-18T19:00:58.121Z,100.00
2018-12-18T19:06:01.553Z,100.00
2018-12-18T19:11:04.812Z,100.00
2018-12-18T19:16:07.997Z,100.00
2018-12-18T19:21:11.368Z,100.00
2018-12-18T19:26:15.253Z,100.00
2018-12-18T19:31:18.732Z,100.00
2018-12-18T19:36:22.006Z,100.00
2018-12-18T19:41:25.294Z,100.00
2018-12-18T19:46:28.652Z,100.00
2018-12-18T19:51:31.969Z,100.00
2018-12-18T19:56:35.142Z,100.00
2018-12-18T20:01:38.658Z,100.00
2018-12-18T20:06:41.896Z,100.00
2018-12-18T20:11:45.332Z,100.00
2018-12-18T20:16:48.632Z,100.00
2018-12-18T20:21:51.892Z,100.00
2018-12-18T20:26:55.109Z,100.00
2018-12-18T20:31:58.474Z,100.00
2018-12-18T20:37:01.736Z,100.00
2018-12-18T20:42:11.462Z,100.00
2018-12-18T20:47:19.142Z,100.00
2018-12-18T20:52:24.983Z,100.00
2018-12-18T20:57:30.814Z,100.00
2018-12-18T21:02:37.377Z,100.00
2018-12-18T21:07:44.025Z,100.00
2018-12-18T21:12:49.952Z,100.00
2018-12-18T21:17:55.565Z,100.00
2018-12-18T21:23:00.980Z,100.00
2018-12-18T21:28:04.380Z,100.00
2018-12-18T21:33:07.739Z,100.00
2018-12-18T21:38:11.209Z,100.00
2018-12-18T21:43:14.533Z,100.00
2018-12-18T21:48:17.962Z,100.00
2018-12-18T21:53:22.222Z,100.00
2018-12-18T21:58:25.543Z,100.00
2018-12-18T22:03:29.182Z,100.00
2018-12-18T22:08:36.819Z,100.00
2018-12-18T22:13:37.589Z,100.00
2018-12-18T22:18:42.896Z,100.00
2018-12-18T22:23:46.792Z,100.00
2018-12-18T22:28:50.248Z,100.00
2018-12-18T22:33:53.693Z,100.00
2018-12-18T22:38:57.317Z,100.00
2018-12-18T22:44:00.633Z,100.00
2018-12-18T22:49:03.994Z,100.00
2018-12-18T22:54:07.396Z,100.00
2018-12-18T22:59:10.783Z,100.00
2018-12-18T23:04:14.996Z,100.00
2018-12-18T23:09:18.189Z,100.00
2018-12-18T23:14:21.456Z,100.00
2018-12-18T23:19:24.734Z,100.00
2018-12-18T23:24:28.190Z,100.00
2018-12-18T23:29:31.407Z,100.00
2018-12-18T23:34:34.846Z,100.00
2018-12-18T23:39:38.079Z,100.00
2018-12-18T23:44:41.470Z,100.00
2018-12-18T23:49:44.853Z,100.00
2018-12-18T23:54:48.968Z,100.00
2018-12-18T23:59:52.176Z,100.00
